Neosho, Missouri
Current Conditions -  °F | °C
As of 6:15 AM on Thursday 18 Dec 2014 (Local Time) from KHFJ Reporting Station
Haze Haze  
Wind Chill: 26°   Ceiling: 500
Heat Index: 32°   Visibility: 4mi
Dew Point: 32°   Wind: 6mph
Humidity: 100%   Direction: 110°ESE
Pressure: 30.15"   Gusts: NA
Location:  36.87°N, 94.36°W
Report Text: KHFJ 181215Z AUTO 11005KT 4SM BR OVC005 00/00 A3015 RMK AO2
Loading
Personal Weather Stations






























Interactive Weather Map New forecast layout! Learn more

10-Day Weather Forecast

Advertisements
Track Severe Weather on mobile